Time,TemperatureF,DewpointF,PressureIn,WindDirection,WindDirectionDegrees,WindSpeedMPH,WindSpeedGustMPH,Humidity,HourlyPrecipIn,Conditions,Clouds,dailyrainin,SoftwareType,DateUTC
2013-02-12 00:01:00,40.3,28.0,30.09,West,274,0.0,5.0,61,0.00,,,0.00,weatherlink.com 1.10,2013-02-12 05:01:00,
2013-02-12 00:16:00,39.2,28.0,30.09,West,268,2.0,4.0,64,0.00,,,0.00,weatherlink.com 1.10,2013-02-12 05:16:00,
2013-02-12 00:31:00,38.8,28.0,30.10,South,172,2.0,2.0,65,0.00,,,0.00,weatherlink.com 1.10,2013-02-12 05:31:00,
2013-02-12 00:46:00,39.3,28.0,30.10,West,271,0.0,3.0,64,0.00,,,0.00,weatherlink.com 1.10,2013-02-12 05:46:00,
2013-02-12 01:01:00,38.1,28.0,30.10,West,271,0.0,2.0,66,0.00,,,0.00,weatherlink.com 1.10,2013-02-12 06:01:00,
2013-02-12 01:16:00,37.1,27.0,30.10,West,271,0.0,1.0,68,0.00,,,0.00,weatherlink.com 1.10,2013-02-12 06:16:00,
2013-02-12 01:31:00,36.2,28.0,30.10,NNW,342,0.0,2.0,71,0.00,,,0.00,weatherlink.com 1.10,2013-02-12 06:31:00,
2013-02-12 01:46:00,36.5,28.0,30.10,West,277,0.0,4.0,70,0.00,,,0.00,weatherlink.com 1.10,2013-02-12 06:46:00,
2013-02-12 02:01:00,36.4,27.0,30.10,West,276,0.0,4.0,70,0.00,,,0.00,weatherlink.com 1.10,2013-02-12 07:01:00,
2013-02-12 02:16:00,36.1,27.0,30.11,West,270,0.0,2.0,70,0.00,,,0.00,weatherlink.com 1.10,2013-02-12 07:16:00,
2013-02-12 02:31:00,35.3,27.0,30.11,West,267,0.0,1.0,72,0.00,,,0.00,weatherlink.com 1.10,2013-02-12 07:31:00,
2013-02-12 02:46:00,35.3,27.0,30.11,WSW,255,0.0,1.0,71,0.00,,,0.00,weatherlink.com 1.10,2013-02-12 07:46:00,
2013-02-12 03:02:00,34.9,27.0,30.11,West,262,0.0,2.0,73,0.00,,,0.00,weatherlink.com 1.10,2013-02-12 08:02:00,
2013-02-12 03:16:00,34.3,26.0,30.11,West,259,0.0,1.0,73,0.00,,,0.00,weatherlink.com 1.10,2013-02-12 08:16:00,
2013-02-12 03:32:00,33.8,27.0,30.11,West,270,0.0,1.0,75,0.00,,,0.00,weatherlink.com 1.10,2013-02-12 08:32:00,
2013-02-12 03:46:00,32.3,26.0,30.10,West,270,0.0,0.0,78,0.00,,,0.00,weatherlink.com 1.10,2013-02-12 08:46:00,
2013-02-12 04:02:00,30.4,25.0,30.10,West,270,0.0,0.0,79,0.00,,,0.00,weatherlink.com 1.10,2013-02-12 09:02:00,
2013-02-12 04:17:00,29.3,25.0,30.10,West,270,0.0,0.0,85,0.00,,,0.00,weatherlink.com 1.10,2013-02-12 09:17:00,
2013-02-12 04:32:00,30.0,25.0,30.11,West,270,0.0,0.0,83,0.00,,,0.00,weatherlink.com 1.10,2013-02-12 09:32:00,
2013-02-12 04:47:00,29.3,25.0,30.11,West,270,0.0,0.0,84,0.00,,,0.00,weatherlink.com 1.10,2013-02-12 09:47:00,
2013-02-12 05:02:00,28.8,25.0,30.11,West,270,0.0,0.0,87,0.00,,,0.00,weatherlink.com 1.10,2013-02-12 10:02:00,
2013-02-12 05:17:00,29.0,25.0,30.12,West,269,0.0,0.0,86,0.00,,,0.00,weatherlink.com 1.10,2013-02-12 10:17:00,
2013-02-12 05:32:00,28.6,25.0,30.11,West,269,0.0,0.0,87,0.00,,,0.00,weatherlink.com 1.10,2013-02-12 10:32:00,
2013-02-12 05:47:00,29.7,26.0,30.12,SW,221,0.0,1.0,86,0.00,,,0.00,weatherlink.com 1.10,2013-02-12 10:47:00,
2013-02-12 06:02:00,30.8,27.0,30.12,WSW,238,1.0,3.0,84,0.00,,,0.00,weatherlink.com 1.10,2013-02-12 11:02:00,
2013-02-12 06:17:00,30.9,26.0,30.13,SW,236,0.0,1.0,82,0.00,,,0.00,weatherlink.com 1.10,2013-02-12 11:17:00,
2013-02-12 06:32:00,30.9,26.0,30.14,SW,233,0.0,1.0,83,0.00,,,0.00,weatherlink.com 1.10,2013-02-12 11:32:00,
2013-02-12 06:47:00,30.0,26.0,30.14,SW,233,0.0,1.0,84,0.00,,,0.00,weatherlink.com 1.10,2013-02-12 11:47:00,
2013-02-12 07:02:00,29.4,26.0,30.14,SW,233,0.0,1.0,85,0.00,,,0.00,weatherlink.com 1.10,2013-02-12 12:02:00,
2013-02-12 07:17:00,28.5,25.0,30.15,NNW,333,0.0,0.0,86,0.00,,,0.00,weatherlink.com 1.10,2013-02-12 12:17:00,
2013-02-12 07:32:00,28.2,25.0,30.15,NNW,333,0.0,0.0,88,0.00,,,0.00,weatherlink.com 1.10,2013-02-12 12:32:00,
2013-02-12 07:47:00,28.2,25.0,30.15,West,260,0.0,0.0,89,0.00,,,0.00,weatherlink.com 1.10,2013-02-12 12:47:00,
2013-02-12 08:02:00,28.3,26.0,30.15,West,260,0.0,1.0,89,0.00,,,0.00,weatherlink.com 1.10,2013-02-12 13:02:00,
2013-02-12 08:17:00,28.6,26.0,30.15,West,260,0.0,1.0,89,0.00,,,0.00,weatherlink.com 1.10,2013-02-12 13:17:00,
2013-02-12 08:32:00,29.9,27.0,30.15,West,260,0.0,0.0,89,0.00,,,0.00,weatherlink.com 1.10,2013-02-12 13:32:00,
2013-02-12 08:47:00,32.0,28.0,30.16,West,260,0.0,0.0,86,0.00,,,0.00,weatherlink.com 1.10,2013-02-12 13:47:00,
2013-02-12 09:02:00,34.5,29.0,30.16,West,281,0.0,1.0,81,0.00,,,0.00,weatherlink.com 1.10,2013-02-12 14:02:00,
2013-02-12 09:17:00,36.0,28.0,30.16,West,261,1.0,3.0,74,0.00,,,0.00,weatherlink.com 1.10,2013-02-12 14:17:00,
2013-02-12 09:32:00,37.1,28.0,30.15,West,274,0.0,2.0,71,0.00,,,0.00,weatherlink.com 1.10,2013-02-12 14:32:00,
2013-02-12 09:47:00,37.9,29.0,30.15,NNE,19,1.0,3.0,69,0.00,,,0.00,weatherlink.com 1.10,2013-02-12 14:47:00,
2013-02-12 10:02:00,38.7,29.0,30.14,NE,48,1.0,2.0,67,0.00,,,0.00,weatherlink.com 1.10,2013-02-12 15:02:00,
2013-02-12 10:17:00,39.4,28.0,30.14,ESE,121,0.0,3.0,65,0.00,,,0.00,weatherlink.com 1.10,2013-02-12 15:17:00,
2013-02-12 10:32:00,40.8,29.0,30.14,WNW,285,1.0,4.0,62,0.00,,,0.00,weatherlink.com 1.10,2013-02-12 15:32:00,
2013-02-12 10:47:00,40.9,29.0,30.13,ENE,65,1.0,2.0,62,0.00,,,0.00,weatherlink.com 1.10,2013-02-12 15:47:00,
2013-02-12 11:03:00,41.8,29.0,30.12,NE,53,0.0,3.0,61,0.00,,,0.00,weatherlink.com 1.10,2013-02-12 16:03:00,
2013-02-12 11:17:00,42.6,29.0,30.12,West,281,2.0,5.0,59,0.00,,,0.00,weatherlink.com 1.10,2013-02-12 16:17:00,
2013-02-12 11:32:00,43.0,29.0,30.10,West,270,2.0,5.0,57,0.00,,,0.00,weatherlink.com 1.10,2013-02-12 16:32:00,
2013-02-12 11:47:00,43.9,29.0,30.09,West,259,0.0,4.0,56,0.00,,,0.00,weatherlink.com 1.10,2013-02-12 16:47:00,
2013-02-12 12:03:00,45.0,30.0,30.08,SE,143,0.0,4.0,55,0.00,,,0.00,weatherlink.com 1.10,2013-02-12 17:03:00,
2013-02-12 12:17:00,45.6,29.0,30.08,NNW,341,2.0,6.0,52,0.00,,,0.00,weatherlink.com 1.10,2013-02-12 17:17:00,
2013-02-12 12:33:00,46.7,29.0,30.07,ESE,120,2.0,3.0,51,0.00,,,0.00,weatherlink.com 1.10,2013-02-12 17:33:00,
2013-02-12 12:47:00,47.3,29.0,30.09,East,99,1.0,5.0,50,0.00,,,0.00,weatherlink.com 1.10,2013-02-12 17:47:00,
2013-02-12 13:02:00,48.4,29.0,30.08,SE,135,2.0,3.0,47,0.00,,,0.00,weatherlink.com 1.10,2013-02-12 18:02:00,
2013-02-12 13:17:00,48.5,28.0,30.09,NNE,27,2.0,4.0,46,0.00,,,0.00,weatherlink.com 1.10,2013-02-12 18:17:00,
2013-02-12 13:32:00,49.3,29.0,30.08,WSW,240,0.0,3.0,46,0.00,,,0.00,weatherlink.com 1.10,2013-02-12 18:32:00,
2013-02-12 14:03:00,50.8,28.0,30.07,NW,304,3.0,6.0,42,0.00,,,0.00,weatherlink.com 1.10,2013-02-12 19:03:00,
2013-02-12 14:18:00,49.9,29.0,30.06,West,259,1.0,4.0,45,0.00,,,0.00,weatherlink.com 1.10,2013-02-12 19:18:00,
2013-02-12 14:33:00,50.0,29.0,30.05,North,6,1.0,6.0,44,0.00,,,0.00,weatherlink.com 1.10,2013-02-12 19:33:00,
2013-02-12 14:48:00,50.6,28.0,30.05,SW,219,0.0,6.0,42,0.00,,,0.00,weatherlink.com 1.10,2013-02-12 19:48:00,
2013-02-12 15:03:00,51.0,29.0,30.05,SW,232,2.0,3.0,43,0.00,,,0.00,weatherlink.com 1.10,2013-02-12 20:03:00,
2013-02-12 15:18:00,50.5,27.0,30.05,West,274,4.0,7.0,41,0.00,,,0.00,weatherlink.com 1.10,2013-02-12 20:18:00,
2013-02-12 15:33:00,49.9,28.0,30.04,West,260,3.0,7.0,43,0.00,,,0.00,weatherlink.com 1.10,2013-02-12 20:33:00,
2013-02-12 15:48:00,50.1,28.0,30.03,SW,214,3.0,5.0,43,0.00,,,0.00,weatherlink.com 1.10,2013-02-12 20:48:00,
2013-02-12 16:03:00,49.8,26.0,30.02,WNW,301,3.0,5.0,40,0.00,,,0.00,weatherlink.com 1.10,2013-02-12 21:03:00,
2013-02-12 16:18:00,49.8,27.0,30.01,WNW,291,0.0,5.0,41,0.00,,,0.00,weatherlink.com 1.10,2013-02-12 21:18:00,
2013-02-12 16:33:00,49.6,26.0,30.00,NW,305,1.0,2.0,40,0.00,,,0.00,weatherlink.com 1.10,2013-02-12 21:33:00,
2013-02-12 16:48:00,49.7,27.0,29.98,SSW,212,0.0,2.0,41,0.00,,,0.00,weatherlink.com 1.10,2013-02-12 21:48:00,
2013-02-12 17:03:00,50.1,26.0,29.97,NNE,22,0.0,2.0,40,0.00,,,0.00,weatherlink.com 1.10,2013-02-12 22:03:00,
2013-02-12 17:18:00,50.5,27.0,29.97,NNE,26,0.0,2.0,40,0.00,,,0.00,weatherlink.com 1.10,2013-02-12 22:18:00,
2013-02-12 17:33:00,49.6,27.0,29.97,West,276,0.0,2.0,42,0.00,,,0.00,weatherlink.com 1.10,2013-02-12 22:33:00,
2013-02-12 17:48:00,48.4,27.0,29.97,NNW,343,0.0,2.0,44,0.00,,,0.00,weatherlink.com 1.10,2013-02-12 22:48:00,
2013-02-12 18:03:00,47.0,28.0,29.97,SW,232,1.0,1.0,48,0.00,,,0.00,weatherlink.com 1.10,2013-02-12 23:03:00,
2013-02-12 18:18:00,45.4,28.0,29.97,WSW,238,0.0,1.0,51,0.00,,,0.00,weatherlink.com 1.10,2013-02-12 23:18:00,
2013-02-12 18:33:00,44.4,28.0,29.97,SW,227,0.0,1.0,53,0.00,,,0.00,weatherlink.com 1.10,2013-02-12 23:33:00,
2013-02-12 18:48:00,43.3,28.0,29.98,SW,228,0.0,1.0,55,0.00,,,0.00,weatherlink.com 1.10,2013-02-12 23:48:00,
2013-02-12 19:03:00,43.0,28.0,29.96,WSW,246,0.0,1.0,56,0.00,,,0.00,weatherlink.com 1.10,2013-02-13 00:03:00,
2013-02-12 19:18:00,42.7,28.0,29.97,SW,229,0.0,1.0,57,0.00,,,0.00,weatherlink.com 1.10,2013-02-13 00:18:00,
2013-02-12 19:33:00,41.6,28.0,29.96,SW,229,0.0,0.0,58,0.00,,,0.00,weatherlink.com 1.10,2013-02-13 00:33:00,
2013-02-12 19:48:00,40.4,28.0,29.96,SW,230,0.0,0.0,62,0.00,,,0.00,weatherlink.com 1.10,2013-02-13 00:48:00,
2013-02-12 20:04:00,40.0,28.0,29.97,SW,229,0.0,1.0,62,0.00,,,0.00,weatherlink.com 1.10,2013-02-13 01:04:00,
2013-02-12 20:19:00,39.5,29.0,29.96,SW,229,0.0,1.0,66,0.00,,,0.00,weatherlink.com 1.10,2013-02-13 01:19:00,
2013-02-12 20:33:00,39.6,29.0,29.95,SW,230,0.0,1.0,67,0.00,,,0.00,weatherlink.com 1.10,2013-02-13 01:33:00,
2013-02-12 20:48:00,40.1,29.0,29.95,SW,221,0.0,1.0,66,0.00,,,0.00,weatherlink.com 1.10,2013-02-13 01:48:00,
2013-02-12 21:03:00,39.9,30.0,29.93,SW,221,0.0,0.0,67,0.00,,,0.00,weatherlink.com 1.10,2013-02-13 02:03:00,
2013-02-12 21:18:00,39.9,30.0,29.93,SW,221,0.0,1.0,67,0.00,,,0.00,weatherlink.com 1.10,2013-02-13 02:18:00,
2013-02-12 21:34:00,39.8,30.0,29.93,SW,221,0.0,0.0,68,0.00,,,0.00,weatherlink.com 1.10,2013-02-13 02:34:00,
2013-02-12 21:49:00,39.9,30.0,29.93,SW,221,0.0,0.0,67,0.00,,,0.00,weatherlink.com 1.10,2013-02-13 02:49:00,
2013-02-12 22:19:00,39.3,30.0,29.91,SW,221,0.0,0.0,70,0.00,,,0.00,weatherlink.com 1.10,2013-02-13 03:19:00,
2013-02-12 22:34:00,39.4,31.0,29.91,SW,221,0.0,0.0,71,0.00,,,0.00,weatherlink.com 1.10,2013-02-13 03:34:00,
2013-02-12 22:49:00,39.0,30.0,29.91,SW,221,0.0,0.0,71,0.00,,,0.00,weatherlink.com 1.10,2013-02-13 03:49:00,
2013-02-12 23:04:00,39.0,31.0,29.91,SW,221,0.0,0.0,73,0.00,,,0.00,weatherlink.com 1.10,2013-02-13 04:04:00,
2013-02-12 23:19:00,38.9,31.0,29.91,SW,221,0.0,0.0,72,0.00,,,0.00,weatherlink.com 1.10,2013-02-13 04:19:00,
2013-02-12 23:34:00,38.7,31.0,29.90,SW,221,0.0,0.0,73,0.00,,,0.00,weatherlink.com 1.10,2013-02-13 04:34:00,
2013-02-12 23:49:00,38.4,31.0,29.90,SW,221,0.0,1.0,74,0.00,,,0.00,weatherlink.com 1.10,2013-02-13 04:49:00,